Terminal Aerodrome Forecast
Issued by NWS Albuquerque, NM

Home | Current Version | Previous Version | Text Only | Print | Product List | Glossary On
Versions: 1 2 3 4 5 6 7 8 9 10 11 12 13 14 15 16 17 18 19 20 21 22 23
000
FTUS45 KABQ 261141
TAFABQ
TAF
KABQ 261141Z 2612/2712 VRB06KT P6SM BKN200
     FM261900 20010KT P6SM FEW100
     FM262300 13012G22KT P6SM SCT110 BKN150
     FM270400 14008KT P6SM FEW110 SCT200=

USA.gov is the U.S. government's official web portal to all federal, state and local government web resources and services.